Time;durP1;ratioP1;P1;durP2;ratioP2;P2;SDS_P1;SDS_P2;PMS_P1;PMS_P2;Temp;Humidity;BMP_temperature;BMP_pressure;BME280_temperature;BME280_humidity;BME280_pressure;Samples;Min_cycle;Max_cycle;Signal;HPM_P1;HPM_P2
2021/04/24 01:04:44;;;;;;;28.85;17.00;;;179.40;2252.80;;;;;;5027872;28;20118;-84
2021/04/24 01:07:10;;;;;;;29.05;16.13;;;179.40;2252.80;;;;;;5011264;28;20104;-82
2021/04/24 01:09:37;;;;;;;29.27;16.52;;;179.40;2252.80;;;;;;5013643;28;20038;-82
2021/04/24 01:12:03;;;;;;;31.20;16.20;;;179.90;2252.80;;;;;;4997367;28;20033;-82
2021/04/24 01:14:29;;;;;;;28.23;15.13;;;179.40;2252.80;;;;;;4997783;28;20025;-83
2021/04/24 01:16:55;;;;;;;25.95;16.50;;;179.40;2252.80;;;;;;5013823;28;20034;-82
2021/04/24 01:19:25;;;;;;;29.15;15.63;;;154.40;2252.80;;;;;;5004144;28;20116;-82
2021/04/24 01:22:00;;;;;;;22.33;13.15;;;179.30;2252.80;;;;;;4977896;28;20057;-83
2021/04/24 01:24:26;;;;;;;26.85;13.93;;;179.40;2252.80;;;;;;4994164;28;20031;-85
2021/04/24 01:26:54;;;;;;;23.08;12.30;;;154.40;2252.80;;;;;;4995390;28;20037;-83
2021/04/24 01:29:19;;;;;;;28.60;15.02;;;154.50;2252.80;;;;;;4994251;28;20026;-83
2021/04/24 01:31:45;;;;;;;22.98;14.93;;;154.40;2252.80;;;;;;4994004;28;20029;-81
2021/04/24 01:34:11;;;;;;;26.65;14.45;;;154.40;2252.80;;;;;;4994737;28;20033;-82
2021/04/24 01:36:37;;;;;;;22.13;13.40;;;154.40;2252.80;;;;;;4994281;28;20387;-84
2021/04/24 01:39:06;;;;;;;25.85;12.93;;;154.30;2252.80;;;;;;4993823;28;20054;-84
2021/04/24 01:41:33;;;;;;;22.00;13.75;;;154.30;2252.80;;;;;;4994106;28;20379;-84
2021/04/24 01:43:59;;;;;;;26.08;14.95;;;154.30;2252.80;;;;;;4993757;28;20036;-83
2021/04/24 01:46:25;;;;;;;21.55;11.88;;;154.40;2252.80;;;;;;4994018;28;20109;-84
2021/04/24 01:48:52;;;;;;;22.80;12.82;;;154.40;2252.80;;;;;;4994068;28;20113;-83
2021/04/24 01:51:18;;;;;;;22.90;14.65;;;154.00;2252.80;;;;;;4992861;28;20034;-84
2021/04/24 01:53:44;;;;;;;22.55;13.45;;;154.30;2252.80;;;;;;4977054;28;20049;-82
2021/04/24 01:56:11;;;;;;;25.17;15.32;;;154.30;2252.80;;;;;;4993148;28;20030;-84
2021/04/24 01:58:37;;;;;;;26.20;14.13;;;154.30;2252.80;;;;;;4977183;28;20030;-85
2021/04/24 02:01:08;;;;;;;29.05;15.02;;;154.30;2252.80;;;;;;4994221;28;20395;-83
2021/04/24 02:03:34;;;;;;;28.27;16.30;;;154.00;2252.80;;;;;;4993767;28;20038;-84
2021/04/24 02:06:00;;;;;;;25.60;14.00;;;153.90;2252.80;;;;;;4990124;28;20097;-83
2021/04/24 02:08:39;;;;;;;31.67;14.73;;;153.80;2252.80;;;;;;4989838;28;20030;-82
2021/04/24 02:11:08;;;;;;;27.20;14.43;;;154.00;2252.80;;;;;;4989952;28;20391;-83
2021/04/24 02:13:37;;;;;;;30.95;14.20;;;153.90;2252.80;;;;;;4989615;28;20061;-83
2021/04/24 02:16:05;;;;;;;22.60;12.55;;;154.00;2252.80;;;;;;4990388;28;20031;-84
2021/04/24 02:18:31;;;;;;;20.55;13.13;;;154.00;2252.80;;;;;;4975059;28;20473;-84
2021/04/24 02:20:58;;;;;;;23.88;12.18;;;154.00;2252.80;;;;;;4974918;28;20115;-83
2021/04/24 02:23:24;;;;;;;22.05;12.85;;;154.00;2252.80;;;;;;4990474;28;20027;-85
2021/04/24 02:25:50;;;;;;;21.70;11.95;;;153.80;2252.80;;;;;;4989098;28;20381;-81
2021/04/24 02:28:16;;;;;;;18.73;12.93;;;153.90;2252.80;;;;;;4990354;28;20035;-83
2021/04/24 02:30:44;;;;;;;23.73;13.02;;;153.90;2252.80;;;;;;4990324;28;20117;-83
2021/04/24 02:33:10;;;;;;;25.23;13.13;;;153.80;2252.80;;;;;;4990042;28;20456;-82
2021/04/24 02:35:47;;;;;;;22.17;12.70;;;153.60;2252.80;;;;;;4989793;28;20033;-81
2021/04/24 02:38:18;;;;;;;22.33;13.20;;;153.70;2252.80;;;;;;4989504;28;20495;-83
2021/04/24 02:40:44;;;;;;;24.23;13.35;;;153.80;2252.80;;;;;;4974255;28;20031;-84
2021/04/24 02:43:10;;;;;;;23.20;13.00;;;128.50;2252.80;;;;;;4990024;28;20034;-83
2021/04/24 02:45:37;;;;;;;24.35;13.38;;;153.60;2252.80;;;;;;4990050;28;20058;-84
2021/04/24 02:48:04;;;;;;;21.75;13.25;;;153.70;2252.80;;;;;;4993209;28;20106;-83
2021/04/24 02:50:30;;;;;;;22.40;13.88;;;128.90;2252.80;;;;;;5009375;28;20026;-83
2021/04/24 02:52:56;;;;;;;24.90;15.20;;;153.60;2252.80;;;;;;4994093;28;20026;-84
2021/04/24 02:55:22;;;;;;;24.00;13.73;;;128.70;2252.80;;;;;;5009552;28;20023;-85
2021/04/24 02:57:48;;;;;;;23.58;13.65;;;128.80;2252.80;;;;;;5009574;28;20034;-84
2021/04/24 03:00:17;;;;;;;25.23;14.07;;;128.70;2252.80;;;;;;5009636;28;20049;-84
2021/04/24 03:02:43;;;;;;;25.15;13.95;;;128.80;2252.80;;;;;;5009451;28;20034;-84
2021/04/24 03:05:11;;;;;;;28.45;14.93;;;128.50;2252.80;;;;;;5009429;28;20060;-84
2021/04/24 03:07:37;;;;;;;19.52;12.10;;;128.40;2252.80;;;;;;5009610;28;20539;-85
2021/04/24 03:10:05;;;;;;;20.75;11.98;;;128.40;2252.80;;;;;;5009408;28;20129;-85
2021/04/24 03:12:31;;;;;;;18.90;12.48;;;128.30;2252.80;;;;;;5009660;28;20027;-85
2021/04/24 03:14:57;;;;;;;23.00;11.48;;;128.30;2252.80;;;;;;5009335;28;20037;-84
2021/04/24 03:17:22;;;;;;;20.33;12.93;;;128.40;2252.80;;;;;;5009668;28;20022;-83
2021/04/24 03:19:48;;;;;;;24.75;12.75;;;128.30;2252.80;;;;;;5009464;28;20037;-84
2021/04/24 03:22:14;;;;;;;25.83;14.02;;;128.50;2252.80;;;;;;5009413;28;20022;-85
2021/04/24 03:24:40;;;;;;;22.40;13.27;;;128.40;2252.80;;;;;;5009730;28;20063;-85
2021/04/24 03:27:06;;;;;;;27.35;12.38;;;128.20;2252.80;;;;;;4997939;28;20026;-84
2021/04/24 03:29:32;;;;;;;26.77;13.98;;;128.20;2252.80;;;;;;5013018;28;20463;-85
2021/04/24 03:31:58;;;;;;;28.30;13.43;;;128.30;2252.80;;;;;;5013048;28;20027;-85
2021/04/24 03:34:23;;;;;;;25.30;13.45;;;128.10;2252.80;;;;;;5013479;28;20065;-84
2021/04/24 03:36:49;;;;;;;23.23;13.45;;;128.10;2252.80;;;;;;5012791;28;20468;-85
2021/04/24 03:39:15;;;;;;;24.85;12.73;;;128.10;2252.80;;;;;;5012997;28;20034;-83
2021/04/24 03:41:41;;;;;;;26.50;13.40;;;128.20;2252.80;;;;;;5013139;28;20030;-82
2021/04/24 03:44:07;;;;;;;27.85;13.93;;;128.10;2252.80;;;;;;5012533;28;20491;-84
2021/04/24 03:46:32;;;;;;;31.10;15.55;;;128.10;2252.80;;;;;;5012753;28;20023;-84
2021/04/24 03:48:58;;;;;;;23.17;14.50;;;128.30;2252.80;;;;;;5013533;28;20448;-84
2021/04/24 03:51:24;;;;;;;28.38;14.70;;;128.30;2252.80;;;;;;4997152;28;20062;-83
2021/04/24 03:53:50;;;;;;;30.77;13.85;;;128.30;2252.80;;;;;;5012350;28;20038;-85
2021/04/24 03:56:16;;;;;;;30.13;13.40;;;128.40;2252.80;;;;;;5012426;28;20085;-84
2021/04/24 03:58:41;;;;;;;23.42;15.55;;;128.60;2252.80;;;;;;5012083;28;20124;-84
2021/04/24 04:01:07;;;;;;;25.85;12.82;;;128.40;2252.80;;;;;;5012402;28;20026;-84
2021/04/24 04:03:33;;;;;;;24.92;12.32;;;128.30;2252.80;;;;;;5012268;28;20381;-84
2021/04/24 04:05:59;;;;;;;21.92;11.85;;;128.30;2252.80;;;;;;5011955;28;20050;-84
2021/04/24 04:08:25;;;;;;;26.38;14.63;;;128.30;2252.80;;;;;;5012279;28;20037;-83
2021/04/24 04:10:50;;;;;;;32.45;16.50;;;128.10;2252.80;;;;;;5011976;28;20037;-84
2021/04/24 04:13:16;;;;;;;38.67;20.35;;;128.00;2252.80;;;;;;5012196;28;20365;-83
2021/04/24 04:15:42;;;;;;;38.90;21.25;;;128.10;2252.80;;;;;;5012171;28;20030;-84
2021/04/24 04:18:16;;;;;;;36.60;24.05;;;128.00;2252.80;;;;;;5011704;28;20071;-84
2021/04/24 04:20:47;;;;;;;32.00;21.48;;;128.10;2252.80;;;;;;4996958;28;20037;-84
2021/04/24 04:23:13;;;;;;;27.88;16.42;;;128.10;2252.80;;;;;;5012554;28;20049;-84
2021/04/24 04:25:40;;;;;;;25.73;16.63;;;103.30;2227.20;;;;;;5011812;28;20030;-82
2021/04/24 04:28:06;;;;;;;22.95;14.93;;;128.00;2252.80;;;;;;5011994;28;20037;-84
2021/04/24 04:30:33;;;;;;;23.50;14.00;;;128.00;2252.80;;;;;;4996640;28;20081;-84
2021/04/24 04:33:00;;;;;;;24.27;14.07;;;103.10;2227.20;;;;;;4996461;28;20073;-84
2021/04/24 04:35:26;;;;;;;32.22;14.45;;;103.10;2227.20;;;;;;5011652;28;20133;-84
2021/04/24 04:37:53;;;;;;;28.10;13.50;;;103.30;2227.20;;;;;;5011580;28;20034;-84
2021/04/24 04:40:19;;;;;;;33.03;15.73;;;103.30;2227.20;;;;;;4995906;28;20033;-84
2021/04/24 04:42:46;;;;;;;27.65;14.55;;;103.30;2227.20;;;;;;5011706;28;20022;-84
2021/04/24 04:45:15;;;;;;;23.92;12.73;;;103.30;2227.20;;;;;;5011661;28;20054;-84
2021/04/24 04:47:41;;;;;;;26.52;13.10;;;103.30;2227.20;;;;;;5011298;28;20026;-83
2021/04/24 04:50:10;;;;;;;24.83;12.98;;;128.00;2252.80;;;;;;5011619;28;20058;-83
2021/04/24 04:52:37;;;;;;;24.42;12.77;;;128.10;2252.80;;;;;;5012021;28;20026;-84
2021/04/24 04:55:05;;;;;;;22.85;14.73;;;128.00;2252.80;;;;;;5011284;28;20081;-84
2021/04/24 04:57:31;;;;;;;24.83;14.75;;;128.20;2252.80;;;;;;4996238;28;20411;-84
2021/04/24 04:59:57;;;;;;;22.83;13.20;;;128.30;2252.80;;;;;;5011530;28;20030;-83
2021/04/24 05:02:23;;;;;;;24.30;13.18;;;128.30;2252.80;;;;;;5011115;28;20484;-84
2021/04/24 05:04:49;;;;;;;26.67;15.48;;;128.20;2252.80;;;;;;5014355;28;20415;-86
2021/04/24 05:07:15;;;;;;;32.25;18.75;;;128.30;2252.80;;;;;;5014304;28;20025;-84
2021/04/24 05:09:41;;;;;;;28.15;17.00;;;128.50;2252.80;;;;;;5014418;28;20026;-84
2021/04/24 05:12:08;;;;;;;34.60;16.25;;;128.70;2252.80;;;;;;5014962;28;20032;-85
2021/04/24 05:14:34;;;;;;;25.17;16.13;;;128.70;2252.80;;;;;;5014077;28;20030;-83
2021/04/24 05:17:00;;;;;;;30.73;16.83;;;128.90;2252.80;;;;;;5014132;28;20080;-84
2021/04/24 05:19:26;;;;;;;62.60;42.40;;;128.90;2252.80;;;;;;5014159;28;20033;-82
2021/04/24 05:21:52;;;;;;;28.25;19.48;;;128.90;2252.80;;;;;;5013886;28;20117;-83
2021/04/24 05:24:18;;;;;;;42.25;27.92;;;128.90;2252.80;;;;;;5014096;28;20033;-84
2021/04/24 05:26:44;;;;;;;41.58;26.50;;;128.90;2252.80;;;;;;5013953;28;20034;-84
2021/04/24 05:29:11;;;;;;;30.67;20.00;;;153.60;2252.80;;;;;;5013875;28;20032;-84
2021/04/24 05:31:36;;;;;;;29.35;18.40;;;153.70;2252.80;;;;;;5014463;28;20060;-83
2021/04/24 05:34:03;;;;;;;39.95;25.45;;;153.80;2252.80;;;;;;5014558;28;20387;-84
2021/04/24 05:36:29;;;;;;;37.10;23.48;;;153.70;2252.80;;;;;;4997398;28;20387;-83
2021/04/24 05:38:55;;;;;;;36.80;22.80;;;153.70;2252.80;;;;;;5013765;28;20030;-84
2021/04/24 05:41:22;;;;;;;52.67;34.72;;;153.80;2252.80;;;;;;5013391;28;20064;-84
2021/04/24 05:43:50;;;;;;;114.10;75.35;;;153.80;2252.80;;;;;;5013578;28;20030;-85
2021/04/24 05:46:17;;;;;;;53.10;31.33;;;153.80;2252.80;;;;;;5013761;28;20125;-83
2021/04/24 05:48:43;;;;;;;43.10;26.55;;;153.90;2252.80;;;;;;5012107;28;20022;-82
2021/04/24 05:51:09;;;;;;;35.45;20.17;;;154.00;2252.80;;;;;;5013596;28;20029;-85
2021/04/24 05:53:35;;;;;;;27.05;15.80;;;154.10;2252.80;;;;;;4996066;28;20037;-85
2021/04/24 05:56:01;;;;;;;31.63;14.35;;;153.90;2252.80;;;;;;5013094;28;20614;-85
2021/04/24 05:58:27;;;;;;;27.08;15.00;;;154.00;2252.80;;;;;;5013210;28;20026;-84
2021/04/24 06:00:53;;;;;;;33.05;17.50;;;154.10;2252.80;;;;;;5013498;28;20387;-85
2021/04/24 06:03:18;;;;;;;25.85;15.18;;;154.00;2252.80;;;;;;5013091;28;20075;-84
2021/04/24 06:05:44;;;;;;;27.83;16.20;;;154.10;2252.80;;;;;;5014620;28;20056;-84
2021/04/24 06:08:10;;;;;;;31.73;16.95;;;154.20;2252.80;;;;;;5012995;28;20570;-86
2021/04/24 06:10:36;;;;;;;29.30;17.85;;;154.20;2252.80;;;;;;5012487;28;20037;-86
2021/04/24 06:13:02;;;;;;;29.83;16.85;;;154.40;2252.80;;;;;;5013611;28;20471;-85
2021/04/24 06:15:28;;;;;;;32.08;18.63;;;154.30;2252.80;;;;;;5013045;28;20087;-84
2021/04/24 06:17:53;;;;;;;28.15;17.70;;;154.40;2252.80;;;;;;5012905;28;20063;-82
2021/04/24 06:20:19;;;;;;;28.90;14.57;;;154.40;2252.80;;;;;;5012735;28;20029;-82
2021/04/24 06:22:45;;;;;;;25.35;14.90;;;179.20;2252.80;;;;;;5012828;28;20037;-81
2021/04/24 06:25:14;;;;;;;29.40;16.88;;;179.30;2252.80;;;;;;5012618;28;20026;-83
2021/04/24 06:27:40;;;;;;;40.45;25.15;;;179.40;2252.80;;;;;;5012976;28;20072;-82
2021/04/24 06:30:08;;;;;;;38.63;23.17;;;179.60;2252.80;;;;;;5013574;28;20026;-84
2021/04/24 06:32:33;;;;;;;31.08;19.13;;;179.80;2252.80;;;;;;5014124;28;20337;-82
2021/04/24 06:34:59;;;;;;;36.47;21.63;;;179.80;2252.80;;;;;;5012975;28;20087;-85
2021/04/24 06:37:25;;;;;;;27.02;17.80;;;179.90;2252.80;;;;;;5012963;28;20026;-86
2021/04/24 06:39:51;;;;;;;27.65;16.75;;;180.10;2252.80;;;;;;5012814;28;20065;-84
2021/04/24 06:42:17;;;;;;;28.02;16.52;;;204.80;2252.80;;;;;;5013036;28;20022;-82
2021/04/24 06:44:46;;;;;;;32.28;17.88;;;204.90;2252.80;;;;;;5012775;28;20026;-82
2021/04/24 06:47:12;;;;;;;30.13;16.98;;;205.00;2252.80;;;;;;5013302;28;20022;-83
2021/04/24 06:49:39;;;;;;;32.05;16.67;;;205.10;2252.80;;;;;;5013020;28;20715;-85
2021/04/24 06:52:06;;;;;;;35.17;19.23;;;205.20;2252.80;;;;;;5012732;28;20574;-85
2021/04/24 06:54:33;;;;;;;30.58;18.65;;;205.30;2252.80;;;;;;5012824;28;20026;-85
2021/04/24 06:56:58;;;;;;;22.45;15.77;;;205.50;2252.80;;;;;;5012725;28;20025;-84
2021/04/24 06:59:24;;;;;;;25.90;16.40;;;205.50;2252.80;;;;;;5012782;28;20490;-83
2021/04/24 07:01:50;;;;;;;27.20;15.27;;;205.70;2252.80;;;;;;5016010;28;20030;-85
2021/04/24 07:04:16;;;;;;;24.73;15.55;;;230.50;2252.80;;;;;;5000887;28;20025;-84
2021/04/24 07:06:42;;;;;;;28.40;15.00;;;230.40;2252.80;;;;;;5016353;28;20058;-83
2021/04/24 07:09:08;;;;;;;24.88;13.70;;;230.70;2252.80;;;;;;5017841;28;20030;-81
2021/04/24 07:11:34;;;;;;;25.98;14.98;;;230.70;2252.80;;;;;;5016446;28;20037;-83
2021/04/24 07:14:00;;;;;;;24.90;14.60;;;231.00;2252.80;;;;;;5015935;28;20022;-84
2021/04/24 07:16:25;;;;;;;29.48;16.40;;;231.20;2252.80;;;;;;5017159;28;20022;-83
2021/04/24 07:18:51;;;;;;;25.00;15.60;;;256.10;2252.80;;;;;;5017394;28;20026;-80
2021/04/24 07:21:17;;;;;;;26.42;14.95;;;256.30;2252.80;;;;;;5016038;28;20034;-80
2021/04/24 07:23:43;;;;;;;23.80;13.38;;;256.50;2252.80;;;;;;5016265;28;20022;-81
2021/04/24 07:26:10;;;;;;;26.25;16.33;;;256.60;2252.80;;;;;;5016011;28;20033;-80
2021/04/24 07:28:36;;;;;;;25.25;14.85;;;256.80;2252.80;;;;;;5015967;28;20069;-81
2021/04/24 07:31:03;;;;;;;32.33;18.92;;;256.90;2252.80;;;;;;4999347;28;20104;-76
2021/04/24 07:33:29;;;;;;;29.52;17.52;;;281.80;2278.40;;;;;;5015838;28;20022;-76
2021/04/24 07:35:55;;;;;;;31.25;18.10;;;281.90;2278.40;;;;;;4998863;28;20426;-74
2021/04/24 07:38:22;;;;;;;27.05;14.77;;;282.10;2278.40;;;;;;4998996;28;20029;-75
2021/04/24 07:40:49;;;;;;;25.33;16.73;;;282.30;2278.40;;;;;;5015194;28;20431;-76
2021/04/24 07:43:16;;;;;;;32.38;15.30;;;282.40;2150.40;;;;;;4999067;28;20033;-76
2021/04/24 07:45:43;;;;;;;26.23;14.88;;;307.20;2073.60;;;;;;5013574;28;20030;-75
2021/04/24 07:48:09;;;;;;;24.83;14.32;;;307.30;2073.60;;;;;;5009564;28;20030;-73
2021/04/24 07:50:36;;;;;;;27.42;14.05;;;307.50;1920.00;;;;;;4997911;28;20025;-75
2021/04/24 07:53:02;;;;;;;28.60;15.85;;;307.50;1996.80;;;;;;5013312;28;20037;-73
2021/04/24 07:55:28;;;;;;;27.23;13.98;;;307.60;1945.60;;;;;;4998034;28;20029;-74
2021/04/24 07:57:54;;;;;;;21.08;12.68;;;307.80;1868.80;;;;;;5015031;28;20034;-74
2021/04/24 08:00:20;;;;;;;15.13;9.23;;;308.00;1792.00;;;;;;4998806;28;20034;-74
2021/04/24 08:02:46;;;;;;;18.92;9.30;;;308.10;1638.40;;;;;;5015889;28;20053;-75
2021/04/24 08:05:16;;;;;;;21.38;11.13;;;332.80;1664.00;;;;;;5015899;28;20082;-75
2021/04/24 08:07:42;;;;;;;17.83;8.93;;;333.00;1715.20;;;;;;5014953;28;20029;-75
2021/04/24 08:10:08;;;;;;;23.38;10.52;;;333.10;1664.00;;;;;;5015881;28;20026;-76
2021/04/24 08:12:34;;;;;;;19.90;10.82;;;333.30;1664.00;;;;;;5014911;28;20387;-77
2021/04/24 08:15:00;;;;;;;22.08;10.98;;;333.60;1638.40;;;;;;5014783;28;20030;-75
2021/04/24 08:17:26;;;;;;;19.80;9.25;;;358.40;1587.20;;;;;;5014384;28;20033;-76
2021/04/24 08:19:51;;;;;;;18.05;9.23;;;358.40;1561.60;;;;;;5012567;28;20034;-77
2021/04/24 08:22:17;;;;;;;19.70;10.05;;;358.40;1510.40;;;;;;5014650;28;20026;-76
2021/04/24 08:24:43;;;;;;;22.98;10.30;;;358.50;1510.40;;;;;;5013242;28;20033;-77
2021/04/24 08:27:09;;;;;;;37.65;20.50;;;358.70;1561.60;;;;;;5014509;28;20092;-77
2021/04/24 08:29:35;;;;;;;27.33;13.85;;;358.90;1561.60;;;;;;5014792;28;20116;-76
2021/04/24 08:32:02;;;;;;;26.40;13.50;;;359.10;1612.80;;;;;;5014205;28;20026;-76
2021/04/24 08:34:29;;;;;;;27.10;15.52;;;384.00;1612.80;;;;;;5013877;28;20030;-75
2021/04/24 08:36:56;;;;;;;17.23;9.15;;;384.10;1433.60;;;;;;5010750;28;20029;-77
2021/04/24 08:39:21;;;;;;;16.35;10.77;;;384.30;1305.60;;;;;;5015134;28;20038;-77
2021/04/24 08:41:48;;;;;;;15.95;8.43;;;384.40;1305.60;;;;;;5013441;28;20034;-78
2021/04/24 08:44:16;;;;;;;23.02;12.80;;;384.60;1280.00;;;;;;5015150;28;20104;-78
2021/04/24 08:46:45;;;;;;;20.63;11.60;;;384.80;1280.00;;;;;;5013845;28;20022;-78
2021/04/24 08:49:16;;;;;;;21.42;10.13;;;384.90;1305.60;;;;;;5012242;28;20034;-78
2021/04/24 08:51:43;;;;;;;20.02;11.25;;;384.90;1280.00;;;;;;4995277;28;20026;-78
2021/04/24 08:54:09;;;;;;;21.00;11.90;;;409.60;1305.60;;;;;;4996890;28;20041;-78
2021/04/24 08:56:35;;;;;;;25.08;12.07;;;409.60;1280.00;;;;;;4992851;28;20023;-79
2021/04/24 08:59:01;;;;;;;22.92;10.90;;;409.70;1305.60;;;;;;4993162;28;20506;-78
2021/04/24 09:01:27;;;;;;;17.10;8.95;;;409.90;1280.00;;;;;;4994349;28;20034;-76
2021/04/24 09:03:53;;;;;;;15.10;7.90;;;410.00;1280.00;;;;;;4994608;28;20459;-76
2021/04/24 09:06:23;;;;;;;16.38;9.95;;;409.80;1228.80;;;;;;4993564;28;20510;-77
2021/04/24 09:08:54;;;;;;;13.15;7.57;;;409.60;1203.20;;;;;;4994605;28;20069;-79
2021/04/24 09:11:20;;;;;;;15.23;8.45;;;384.90;1203.20;;;;;;4994219;28;20034;-77
2021/04/24 09:14:04;;;;;;;15.82;8.68;;;410.00;1254.40;;;;;;4993931;28;20022;-76
2021/04/24 09:16:30;;;;;;;18.10;10.05;;;410.00;1254.40;;;;;;4994088;28;20173;-76
2021/04/24 09:18:57;;;;;;;17.08;8.05;;;410.10;1228.80;;;;;;5003564;28;20100;-76
2021/04/24 09:21:25;;;;;;;12.65;7.80;;;410.20;1228.80;;;;;;5012011;28;20045;-77
2021/04/24 09:23:51;;;;;;;18.00;8.85;;;410.30;1254.40;;;;;;5013038;28;20018;-77
2021/04/24 09:26:21;;;;;;;21.98;10.70;;;410.30;1228.80;;;;;;5007635;28;20042;-77
2021/04/24 09:28:51;;;;;;;17.20;7.88;;;410.50;1228.80;;;;;;4996775;28;20069;-78
2021/04/24 09:31:17;;;;;;;16.48;6.95;;;410.50;1203.20;;;;;;5012897;28;20026;-81
2021/04/24 09:33:49;;;;;;;16.13;9.65;;;410.50;1203.20;;;;;;5012782;28;20021;-77
2021/04/24 09:36:16;;;;;;;16.70;10.07;;;435.20;1228.80;;;;;;5013281;28;20056;-76
2021/04/24 09:38:44;;;;;;;17.25;10.27;;;435.50;1203.20;;;;;;5012887;28;20080;-82
2021/04/24 09:41:24;;;;;;;14.50;8.35;;;435.40;1203.20;;;;;;5012983;28;20030;-82
2021/04/24 09:44:00;;;;;;;13.95;8.02;;;435.50;1203.20;;;;;;5012633;28;20026;-83
2021/04/24 09:46:34;;;;;;;14.13;7.78;;;435.40;1177.60;;;;;;5012293;28;20382;-82
2021/04/24 09:49:27;;;;;;;13.52;7.40;;;410.50;1177.60;;;;;;5009872;28;20064;-84
2021/04/24 09:52:04;;;;;;;13.35;7.72;;;435.20;1203.20;;;;;;5013302;28;20026;-82
2021/04/24 09:54:45;;;;;;;14.82;7.15;;;435.60;1177.60;;;;;;5012197;28;20030;-83
2021/04/24 09:57:22;;;;;;;15.50;10.02;;;435.80;1177.60;;;;;;5014360;28;20462;-83
2021/04/24 10:00:02;;;;;;;12.23;8.32;;;436.00;1203.20;;;;;;5015015;28;20034;-83
2021/04/24 10:02:40;;;;;;;17.08;8.48;;;460.90;1177.60;;;;;;5013474;28;20029;-83
2021/04/24 10:05:16;;;;;;;13.38;8.15;;;461.00;1177.60;;;;;;5014270;28;20132;-83
2021/04/24 10:07:47;;;;;;;13.65;7.35;;;461.10;1152.00;;;;;;5013676;28;20069;-83
2021/04/24 10:10:29;;;;;;;15.48;7.65;;;461.10;1152.00;;;;;;5013262;28;20495;-83
2021/04/24 10:12:57;;;;;;;10.23;6.22;;;461.10;1126.40;;;;;;5014390;28;20160;-83
2021/04/24 10:15:44;;;;;;;20.08;7.10;;;461.20;1126.40;;;;;;5013149;28;20033;-82
2021/04/24 10:18:15;;;;;;;15.73;7.85;;;461.40;1152.00;;;;;;4995693;28;20460;-83
2021/04/24 10:20:44;;;;;;;13.32;7.82;;;461.20;1126.40;;;;;;5008948;28;20026;-84
2021/04/24 10:23:11;;;;;;;13.30;7.50;;;461.40;1126.40;;;;;;4976662;28;20030;-83
2021/04/24 10:25:39;;;;;;;14.43;8.13;;;461.50;1100.80;;;;;;4977078;28;20387;-83
2021/04/24 10:28:05;;;;;;;12.10;7.80;;;486.50;1152.00;;;;;;4977964;28;20388;-83
2021/04/24 10:30:31;;;;;;;14.50;7.43;;;486.60;1100.80;;;;;;4993308;28;20030;-85
2021/04/24 10:32:59;;;;;;;14.80;8.82;;;486.40;1075.20;;;;;;4994736;28;20387;-83
2021/04/24 10:35:27;;;;;;;14.75;7.32;;;486.40;1126.40;;;;;;5013333;28;20103;-81
2021/04/24 10:37:54;;;;;;;12.35;6.28;;;486.70;1049.60;;;;;;5010628;28;20025;-78
2021/04/24 10:40:20;;;;;;;12.35;6.97;;;486.80;1049.60;;;;;;5013754;28;20386;-79
2021/04/24 10:42:54;;;;;;;13.75;8.00;;;486.80;1024.00;;;;;;5014418;28;20026;-78
2021/04/24 10:45:28;;;;;;;14.63;7.47;;;487.10;1049.60;;;;;;5015189;28;20085;-77
2021/04/24 10:47:55;;;;;;;14.63;7.72;;;487.30;1049.60;;;;;;5015615;28;20437;-83
2021/04/24 10:50:40;;;;;;;17.25;8.05;;;512.00;1049.60;;;;;;5014546;28;20030;-84
2021/04/24 10:53:26;;;;;;;13.07;7.43;;;512.30;1024.00;;;;;;5016909;28;20024;-82
2021/04/24 10:55:55;;;;;;;12.20;7.35;;;512.30;1049.60;;;;;;5019616;28;20525;-83
2021/04/24 10:58:23;;;;;;;11.38;7.07;;;512.00;1024.00;;;;;;4999350;28;20471;-80
2021/04/24 11:00:58;;;;;;;12.85;8.25;;;512.10;1024.00;;;;;;5013764;28;20037;-84
2021/04/24 11:03:46;;;;;;;11.25;5.50;;;512.40;1024.00;;;;;;5014117;28;20474;-81
2021/04/24 11:06:24;;;;;;;13.43;7.32;;;512.80;972.80;;;;;;4996864;28;20138;-83
2021/04/24 11:09:20;;;;;;;11.60;6.78;;;512.80;998.40;;;;;;4994097;28;20027;-82
2021/04/24 11:11:50;;;;;;;10.88;6.43;;;512.40;998.40;;;;;;4992168;28;20033;-84
2021/04/24 11:14:18;;;;;;;14.30;6.47;;;512.10;972.80;;;;;;5011867;28;20121;-83
2021/04/24 11:16:46;;;;;;;10.88;5.97;;;512.10;1024.00;;;;;;5012493;28;20088;-80
2021/04/24 11:19:46;;;;;;;12.65;6.55;;;512.10;1024.00;;;;;;5008393;28;20480;-83
2021/04/24 11:22:30;;;;;;;10.30;6.32;;;487.30;1024.00;;;;;;4977725;28;20411;-81
2021/04/24 11:25:16;;;;;;;8.70;5.57;;;512.20;1024.00;;;;;;4979511;28;20030;-82
2021/04/24 11:28:07;;;;;;;13.38;8.05;;;512.50;972.80;;;;;;4993584;28;20031;-83
2021/04/24 11:30:58;;;;;;;11.50;5.75;;;512.80;998.40;;;;;;4994227;28;20521;-82
2021/04/24 11:33:48;;;;;;;11.20;6.55;;;512.60;998.40;;;;;;4995178;28;20034;-82
2021/04/24 11:36:32;;;;;;;16.00;7.25;;;512.40;1024.00;;;;;;4993054;28;20399;-84
2021/04/24 11:38:59;;;;;;;14.00;6.13;;;512.80;1024.00;;;;;;4995082;28;20022;-77
2021/04/24 11:41:39;;;;;;;12.80;6.63;;;512.80;972.80;;;;;;4992002;28;20060;-78
2021/04/24 11:44:18;;;;;;;11.93;6.40;;;537.90;1024.00;;;;;;5012792;28;20058;-77
2021/04/24 11:46:45;;;;;;;15.65;6.97;;;537.60;998.40;;;;;;5008809;28;20503;-77
2021/04/24 11:49:13;;;;;;;12.10;5.97;;;537.90;972.80;;;;;;5010542;28;20038;-77
2021/04/24 11:51:43;;;;;;;11.80;5.28;;;537.70;947.20;;;;;;4991415;28;20038;-77
2021/04/24 11:54:38;;;;;;;10.88;6.07;;;537.80;972.80;;;;;;4976228;28;20031;-76
2021/04/24 11:57:07;;;;;;;13.50;7.40;;;537.80;947.20;;;;;;4999652;28;20042;-75
2021/04/24 11:59:36;;;;;;;14.80;7.95;;;538.00;972.80;;;;;;4992169;28;20034;-77
2021/04/24 12:02:12;;;;;;;15.93;9.98;;;537.90;947.20;;;;;;4993292;28;20045;-77
2021/04/24 12:04:38;;;;;;;11.43;6.10;;;538.20;947.20;;;;;;4990361;28;20030;-76
2021/04/24 12:07:06;;;;;;;12.35;5.85;;;537.90;947.20;;;;;;4991921;28;20054;-78
2021/04/24 12:09:53;;;;;;;11.85;6.55;;;538.20;998.40;;;;;;4990684;28;20034;-78
2021/04/24 12:12:37;;;;;;;21.63;12.63;;;537.90;947.20;;;;;;4990958;28;20081;-79
2021/04/24 12:15:19;;;;;;;9.82;6.38;;;538.00;947.20;;;;;;5001180;28;20050;-78
2021/04/24 12:17:48;;;;;;;10.07;6.50;;;512.90;896.00;;;;;;5011317;28;20034;-79
2021/04/24 12:20:25;;;;;;;16.13;9.05;;;512.90;998.40;;;;;;5007369;28;20042;-79
2021/04/24 12:22:52;;;;;;;10.60;6.05;;;512.90;972.80;;;;;;5010734;28;20054;-79
2021/04/24 12:25:20;;;;;;;11.40;6.53;;;537.60;1024.00;;;;;;5005866;28;20045;-79
2021/04/24 12:27:48;;;;;;;9.57;5.57;;;512.90;947.20;;;;;;4994331;28;20464;-78
2021/04/24 12:30:35;;;;;;;10.05;5.80;;;537.60;947.20;;;;;;4993091;28;20027;-79
2021/04/24 12:33:04;;;;;;;11.35;5.63;;;512.70;921.60;;;;;;4992835;28;20035;-80
2021/04/24 12:36:00;;;;;;;12.43;6.55;;;512.30;947.20;;;;;;5008665;28;20027;-79
2021/04/24 12:38:30;;;;;;;15.45;6.47;;;512.30;972.80;;;;;;5004858;28;20054;-79
2021/04/24 12:41:02;;;;;;;23.45;13.93;;;512.60;998.40;;;;;;5010867;28;20041;-80
2021/04/24 12:43:40;;;;;;;10.93;7.47;;;512.30;947.20;;;;;;5006972;28;20030;-79
2021/04/24 12:46:07;;;;;;;12.57;5.68;;;512.50;972.80;;;;;;4990921;28;20057;-80
2021/04/24 12:48:41;;;;;;;14.70;5.75;;;512.50;947.20;;;;;;4982511;28;20057;-80
2021/04/24 12:51:21;;;;;;;11.80;5.35;;;512.40;998.40;;;;;;5000938;28;20030;-78
2021/04/24 12:53:48;;;;;;;14.32;6.88;;;512.40;998.40;;;;;;4990333;28;20375;-77
2021/04/24 12:56:22;;;;;;;12.32;5.85;;;512.10;972.80;;;;;;4993993;28;20026;-78
2021/04/24 12:58:54;;;;;;;12.68;6.07;;;512.30;972.80;;;;;;5003379;28;20035;-79
2021/04/24 13:01:23;;;;;;;11.90;5.75;;;512.10;998.40;;;;;;4990439;28;20057;-78
2021/04/24 13:03:55;;;;;;;13.13;6.13;;;487.30;972.80;;;;;;4990429;28;20105;-80
2021/04/24 13:06:23;;;;;;;16.40;9.75;;;487.20;972.80;;;;;;5005167;28;20058;-80
2021/04/24 13:09:07;;;;;;;17.02;8.50;;;486.80;972.80;;;;;;5009892;28;20025;-79
2021/04/24 13:11:52;;;;;;;15.85;6.93;;;487.00;1024.00;;;;;;5011185;28;20383;-78
2021/04/24 13:14:26;;;;;;;12.85;7.13;;;487.10;1049.60;;;;;;4994952;28;20463;-79
2021/04/24 13:16:53;;;;;;;9.25;5.60;;;487.00;1024.00;;;;;;5010586;28;20033;-79